sensor_id;sensor_type;location;lat;lon;timestamp;pressure;altitude;pressure_sealevel;temperature;humidity
65054;BME280;51639;47.828;35.038;2023-02-26T00:02:03;98980.59;;;10.82;100.00
65054;BME280;51639;47.828;35.038;2023-02-26T00:32:35;98967.47;;;10.06;100.00
65054;BME280;51639;47.828;35.038;2023-02-26T01:03:03;98981.63;;;10.23;100.00
65054;BME280;51639;47.828;35.038;2023-02-26T01:18:11;99010.25;;;10.24;100.00
65054;BME280;51639;47.828;35.038;2023-02-26T01:33:40;99019.53;;;10.36;100.00
65054;BME280;51639;47.828;35.038;2023-02-26T01:48:56;99026.94;;;10.35;100.00
65054;BME280;51639;47.828;35.038;2023-02-26T02:03:58;99044.81;;;10.11;100.00
65054;BME280;51639;47.828;35.038;2023-02-26T02:49:48;99048.22;;;10.24;100.00
65054;BME280;51639;47.828;35.038;2023-02-26T03:04:52;99044.78;;;9.89;100.00
65054;BME280;51639;47.828;35.038;2023-02-26T03:20:28;99060.38;;;9.38;100.00
65054;BME280;51639;47.828;35.038;2023-02-26T03:35:44;99067.72;;;9.24;100.00
65054;BME280;51639;47.828;35.038;2023-02-26T03:50:50;99086.59;;;9.15;100.00
65054;BME280;51639;47.828;35.038;2023-02-26T04:05:53;99103.25;;;9.27;100.00
65054;BME280;51639;47.828;35.038;2023-02-26T04:20:55;99183.00;;;9.51;100.00
65054;BME280;51639;47.828;35.038;2023-02-26T04:35:58;99152.97;;;9.71;100.00
65054;BME280;51639;47.828;35.038;2023-02-26T04:51:00;99222.34;;;9.55;100.00
65054;BME280;51639;47.828;35.038;2023-02-26T05:06:02;99224.63;;;9.57;100.00
65054;BME280;51639;47.828;35.038;2023-02-26T05:21:05;99267.03;;;9.76;100.00
65054;BME280;51639;47.828;35.038;2023-02-26T05:36:08;99279.63;;;9.83;100.00
65054;BME280;51639;47.828;35.038;2023-02-26T05:51:10;99252.28;;;9.77;100.00
65054;BME280;51639;47.828;35.038;2023-02-26T06:06:13;99285.16;;;9.79;100.00
65054;BME280;51639;47.828;35.038;2023-02-26T06:21:19;99327.00;;;9.78;100.00
65054;BME280;51639;47.828;35.038;2023-02-26T06:36:20;99330.69;;;9.84;100.00
65054;BME280;51639;47.828;35.038;2023-02-26T06:51:22;99387.13;;;9.61;100.00
65054;BME280;51639;47.828;35.038;2023-02-26T07:06:24;99436.16;;;9.50;100.00
65054;BME280;51639;47.828;35.038;2023-02-26T07:21:28;99455.06;;;9.37;100.00
65054;BME280;51639;47.828;35.038;2023-02-26T07:36:31;99487.91;;;9.39;100.00
65054;BME280;51639;47.828;35.038;2023-02-26T07:51:33;99502.91;;;9.44;100.00
65054;BME280;51639;47.828;35.038;2023-02-26T08:06:35;99527.09;;;9.67;100.00
65054;BME280;51639;47.828;35.038;2023-02-26T08:21:38;99544.19;;;9.80;100.00
65054;BME280;51639;47.828;35.038;2023-02-26T08:36:40;99544.44;;;9.86;100.00
65054;BME280;51639;47.828;35.038;2023-02-26T08:51:42;99562.81;;;9.30;100.00
65054;BME280;51639;47.828;35.038;2023-02-26T09:06:44;99568.38;;;9.22;100.00
65054;BME280;51639;47.828;35.038;2023-02-26T09:21:47;99578.38;;;9.26;100.00
65054;BME280;51639;47.828;35.038;2023-02-26T09:36:48;99593.22;;;9.21;100.00
65054;BME280;51639;47.828;35.038;2023-02-26T09:52:07;99580.59;;;9.31;100.00
65054;BME280;51639;47.828;35.038;2023-02-26T10:22:46;99584.78;;;9.68;100.00
65054;BME280;51639;47.828;35.038;2023-02-26T10:53:03;99571.44;;;9.89;100.00
65054;BME280;51639;47.828;35.038;2023-02-26T11:08:17;99564.81;;;10.07;100.00
65054;BME280;51639;47.828;35.038;2023-02-26T11:23:21;99598.84;;;10.24;100.00
65054;BME280;51639;47.828;35.038;2023-02-26T11:38:25;99629.13;;;10.22;100.00
65054;BME280;51639;47.828;35.038;2023-02-26T11:53:34;99679.47;;;10.07;100.00
65054;BME280;51639;47.828;35.038;2023-02-26T12:08:38;99705.81;;;9.90;100.00
65054;BME280;51639;47.828;35.038;2023-02-26T12:55:02;99708.19;;;9.88;100.00
65054;BME280;51639;47.828;35.038;2023-02-26T13:25:30;99694.09;;;9.77;100.00
65054;BME280;51639;47.828;35.038;2023-02-26T14:11:56;99679.22;;;9.85;100.00
65054;BME280;51639;47.828;35.038;2023-02-26T14:42:40;99651.63;;;9.38;100.00
65054;BME280;51639;47.828;35.038;2023-02-26T15:28:27;99653.63;;;9.18;100.00
65054;BME280;51639;47.828;35.038;2023-02-26T15:43:30;99662.75;;;9.60;100.00
65054;BME280;51639;47.828;35.038;2023-02-26T15:58:39;99689.53;;;9.74;100.00
65054;BME280;51639;47.828;35.038;2023-02-26T16:13:44;99767.91;;;9.85;100.00
65054;BME280;51639;47.828;35.038;2023-02-26T16:28:55;99806.75;;;9.62;100.00
65054;BME280;51639;47.828;35.038;2023-02-26T16:43:59;99805.06;;;9.68;100.00
65054;BME280;51639;47.828;35.038;2023-02-26T16:59:12;99816.94;;;9.54;100.00
65054;BME280;51639;47.828;35.038;2023-02-26T17:14:24;99825.97;;;9.87;100.00
65054;BME280;51639;47.828;35.038;2023-02-26T17:29:34;99843.25;;;9.93;100.00
65054;BME280;51639;47.828;35.038;2023-02-26T17:44:42;99867.75;;;9.90;100.00
65054;BME280;51639;47.828;35.038;2023-02-26T17:59:44;99866.84;;;9.77;100.00
65054;BME280;51639;47.828;35.038;2023-02-26T18:14:46;99867.13;;;9.43;100.00
65054;BME280;51639;47.828;35.038;2023-02-26T18:29:50;99867.59;;;9.38;100.00
65054;BME280;51639;47.828;35.038;2023-02-26T18:44:53;99924.47;;;9.61;100.00
65054;BME280;51639;47.828;35.038;2023-02-26T18:59:55;99943.41;;;9.41;100.00
65054;BME280;51639;47.828;35.038;2023-02-26T19:14:57;99928.03;;;9.11;100.00
65054;BME280;51639;47.828;35.038;2023-02-26T19:29:59;99954.03;;;9.05;100.00
65054;BME280;51639;47.828;35.038;2023-02-26T19:45:01;99959.34;;;9.12;100.00
65054;BME280;51639;47.828;35.038;2023-02-26T20:00:04;99944.59;;;9.17;100.00
65054;BME280;51639;47.828;35.038;2023-02-26T20:15:07;99960.06;;;9.16;100.00
65054;BME280;51639;47.828;35.038;2023-02-26T20:30:09;99975.50;;;9.19;100.00
65054;BME280;51639;47.828;35.038;2023-02-26T20:45:12;99983.94;;;8.98;100.00
65054;BME280;51639;47.828;35.038;2023-02-26T21:00:14;100005.53;;;8.75;100.00
65054;BME280;51639;47.828;35.038;2023-02-26T21:15:16;100033.59;;;8.58;100.00
65054;BME280;51639;47.828;35.038;2023-02-26T21:30:18;100060.28;;;8.55;100.00
65054;BME280;51639;47.828;35.038;2023-02-26T21:45:20;100072.81;;;8.42;100.00
65054;BME280;51639;47.828;35.038;2023-02-26T22:00:22;100077.88;;;8.40;100.00
65054;BME280;51639;47.828;35.038;2023-02-26T22:15:24;100101.84;;;8.38;100.00
65054;BME280;51639;47.828;35.038;2023-02-26T22:30:26;100131.53;;;8.45;100.00
65054;BME280;51639;47.828;35.038;2023-02-26T22:45:28;100144.75;;;8.36;100.00
65054;BME280;51639;47.828;35.038;2023-02-26T23:00:30;100149.03;;;8.34;100.00
65054;BME280;51639;47.828;35.038;2023-02-26T23:15:32;100162.97;;;8.32;100.00
65054;BME280;51639;47.828;35.038;2023-02-26T23:30:35;100192.44;;;8.16;100.00
65054;BME280;51639;47.828;35.038;2023-02-26T23:45:37;100184.81;;;8.04;100.00
